CYBW/YBW METAR and TAF weather

Enter ICAO airport designator
Station Type Date Time Source
CYBW METAR 2018/04/26 15:00 UTC NOAA

CYBW 261500Z AUTO 33006KT 9SM CLR 09/M02 A3016 RMK SLP236


Station Type Date Time Source
CYBW Decoded METAR 2018/04/26 15:00 UTC NOAA

Calgary / Springbank, Canada (CYBW) 51-06N 114-22W
Apr 26, 2018 - 11:00 AM EDT / 2018.04.26 1500 UTC
Wind: from the NNW (330 degrees) at 7 MPH (6 KT):0
Visibility: 9 mile(s):0
Sky conditions: clear
Temperature: 48 F (9 C)
Dew Point: 28 F (-2 C)
Relative Humidity: 45%
Pressure (altimeter): 30.16 in. Hg (1021 hPa)
ob: CYBW 261500Z AUTO 33006KT 9SM CLR 09/M02 A3016 RMK SLP236
cycle: 15

Station Type Date Time Source
CYBW TAF 2018/04/26 12:42 UTC NOAA

TAF CYBW 261138Z 2612/2624 30008KT P6SM SKC
FM261800 02008KT P6SM SKC
BECMG 2618/2620 10006KT
RMK FCST BASED ON AUTO OBS. NXT FCST BY 261800Z


Example: see airport list